Terminal Aerodrome Forecast
Issued by NWS Green Bay, WI

Home | Current Version | Previous Version | Text Only | Print | Product List | Glossary Off
Versions: 1 2 3 4 5 6 7 8 9 10 11 12 13 14 15 16 17 18 19 20 21 22 23

000
FTUS43 KGRB 191509 AAC
TAFGRB
TAF AMD
KGRB 191509Z 1915/2012 28006KT P6SM BKN012 BKN080
     FM191700 28010G17KT P6SM VCSH BKN040 BKN070
      TEMPO 1918/1922 5SM TSRA BKN035CB
     FM200100 28005KT P6SM SCT100
      TEMPO 2009/2012 BKN100=

USA.gov is the U.S. government's official web portal to all federal, state and local government web resources and services.